Portage Glacier, Alaska
Current Conditions -  °F | °C
As of 7:53 AM on Monday 22 Dec 2014 (Local Time) from PATO Reporting Station
Overcast Overcast  
Wind Chill: 31°   Ceiling: 2900
Heat Index: 35°   Visibility: 10mi
Dew Point: 34°   Wind: 5mph
Humidity: 96%   Direction: 100°E
Pressure: 29.67"   Gusts: NA
Location:  60.78°N, 148.85°W
Report Text: PATO 221653Z AUTO 10004KT 10SM BKN029 OVC034 02/01 A2967 RMK AO2 RAE00 SLP049 P0000 T00170011 TSNO
Loading
Personal Weather Stations






























Interactive Weather Map New forecast layout! Learn more

10-Day Weather Forecast

Advertisements
Track Severe Weather on mobile